sensor_id;sensor_type;location;lat;lon;timestamp;pressure;altitude;pressure_sealevel;temperature;humidity
37904;BME280;23738;50.422;18.758;2022-10-31T00:00:46;98876.36;;;11.42;79.35
37904;BME280;23738;50.422;18.758;2022-10-31T00:03:12;98869.65;;;11.40;79.30
37904;BME280;23738;50.422;18.758;2022-10-31T00:05:46;98867.19;;;11.38;79.38
37904;BME280;23738;50.422;18.758;2022-10-31T00:08:14;98869.33;;;11.39;79.34
37904;BME280;23738;50.422;18.758;2022-10-31T00:10:41;98870.22;;;11.35;79.22
37904;BME280;23738;50.422;18.758;2022-10-31T00:13:08;98867.67;;;11.31;79.21
37904;BME280;23738;50.422;18.758;2022-10-31T00:15:35;98869.56;;;11.27;79.12
37904;BME280;23738;50.422;18.758;2022-10-31T00:18:04;98872.42;;;11.25;79.13
37904;BME280;23738;50.422;18.758;2022-10-31T00:20:30;98869.66;;;11.23;79.11
37904;BME280;23738;50.422;18.758;2022-10-31T00:23:02;98872.17;;;11.20;79.01
37904;BME280;23738;50.422;18.758;2022-10-31T00:25:32;98865.03;;;11.14;78.86
37904;BME280;23738;50.422;18.758;2022-10-31T00:28:02;98868.65;;;11.06;78.76
37904;BME280;23738;50.422;18.758;2022-10-31T00:30:31;98872.58;;;11.00;78.82
37904;BME280;23738;50.422;18.758;2022-10-31T00:32:57;98868.35;;;10.95;78.84
37904;BME280;23738;50.422;18.758;2022-10-31T00:35:24;98872.54;;;10.93;78.92
37904;BME280;23738;50.422;18.758;2022-10-31T00:37:50;98868.77;;;10.92;78.91
37904;BME280;23738;50.422;18.758;2022-10-31T00:40:16;98875.05;;;10.91;78.96
37904;BME280;23738;50.422;18.758;2022-10-31T00:42:42;98869.14;;;10.89;78.96
37904;BME280;23738;50.422;18.758;2022-10-31T00:45:09;98873.09;;;10.89;78.98
37904;BME280;23738;50.422;18.758;2022-10-31T00:47:35;98869.51;;;10.86;78.95
37904;BME280;23738;50.422;18.758;2022-10-31T00:50:00;98872.93;;;10.80;78.93
37904;BME280;23738;50.422;18.758;2022-10-31T00:52:26;98877.08;;;10.78;78.97
37904;BME280;23738;50.422;18.758;2022-10-31T00:54:52;98873.94;;;10.79;79.14
37904;BME280;23738;50.422;18.758;2022-10-31T00:57:18;98871.10;;;10.80;79.16
37904;BME280;23738;50.422;18.758;2022-10-31T00:59:43;98877.02;;;10.82;79.14
37904;BME280;23738;50.422;18.758;2022-10-31T01:02:09;98877.39;;;10.79;79.13
37904;BME280;23738;50.422;18.758;2022-10-31T01:04:35;98880.44;;;10.76;79.15
37904;BME280;23738;50.422;18.758;2022-10-31T01:07:01;98880.63;;;10.74;79.21
37904;BME280;23738;50.422;18.758;2022-10-31T01:09:26;98882.45;;;10.74;79.32
37904;BME280;23738;50.422;18.758;2022-10-31T01:11:52;98881.95;;;10.74;79.38
37904;BME280;23738;50.422;18.758;2022-10-31T01:14:18;98874.02;;;10.74;79.35
37904;BME280;23738;50.422;18.758;2022-10-31T01:16:44;98877.85;;;10.72;79.25
37904;BME280;23738;50.422;18.758;2022-10-31T01:19:10;98878.76;;;10.68;79.20
37904;BME280;23738;50.422;18.758;2022-10-31T01:21:35;98875.85;;;10.63;79.11
37904;BME280;23738;50.422;18.758;2022-10-31T01:24:01;98880.91;;;10.58;79.07
37904;BME280;23738;50.422;18.758;2022-10-31T01:26:30;98878.72;;;10.51;78.98
37904;BME280;23738;50.422;18.758;2022-10-31T01:29:02;98881.22;;;10.49;79.01
37904;BME280;23738;50.422;18.758;2022-10-31T01:31:32;98877.12;;;10.46;79.05
37904;BME280;23738;50.422;18.758;2022-10-31T01:33:59;98878.02;;;10.43;78.96
37904;BME280;23738;50.422;18.758;2022-10-31T01:36:28;98875.75;;;10.40;78.89
37904;BME280;23738;50.422;18.758;2022-10-31T01:39:02;98880.11;;;10.37;78.90
37904;BME280;23738;50.422;18.758;2022-10-31T01:41:35;98873.23;;;10.31;78.80
37904;BME280;23738;50.422;18.758;2022-10-31T01:47:07;98872.31;;;10.18;78.66
37904;BME280;23738;50.422;18.758;2022-10-31T01:49:40;98868.50;;;10.16;78.71
37904;BME280;23738;50.422;18.758;2022-10-31T01:52:10;98865.63;;;10.11;78.68
37904;BME280;23738;50.422;18.758;2022-10-31T01:54:41;98866.80;;;10.09;78.66
37904;BME280;23738;50.422;18.758;2022-10-31T01:57:11;98862.42;;;10.05;78.64
37904;BME280;23738;50.422;18.758;2022-10-31T01:59:41;98865.78;;;9.99;78.59
37904;BME280;23738;50.422;18.758;2022-10-31T02:02:10;98871.14;;;9.95;78.59
37904;BME280;23738;50.422;18.758;2022-10-31T02:04:37;98868.36;;;9.92;78.67
37904;BME280;23738;50.422;18.758;2022-10-31T02:07:10;98870.81;;;9.94;78.73
37904;BME280;23738;50.422;18.758;2022-10-31T02:09:37;98868.68;;;9.93;78.67
37904;BME280;23738;50.422;18.758;2022-10-31T02:12:04;98870.81;;;9.94;78.68
37904;BME280;23738;50.422;18.758;2022-10-31T02:14:31;98873.31;;;9.91;78.62
37904;BME280;23738;50.422;18.758;2022-10-31T02:16:57;98874.71;;;9.87;78.57
37904;BME280;23738;50.422;18.758;2022-10-31T02:25:40;98878.39;;;9.82;78.61
37904;BME280;23738;50.422;18.758;2022-10-31T02:31:33;98871.97;;;9.70;78.49
37904;BME280;23738;50.422;18.758;2022-10-31T02:34:12;98876.50;;;9.66;78.42
37904;BME280;23738;50.422;18.758;2022-10-31T02:36:58;98874.25;;;9.58;78.35
37904;BME280;23738;50.422;18.758;2022-10-31T02:39:40;98880.45;;;9.51;78.40
37904;BME280;23738;50.422;18.758;2022-10-31T02:42:17;98880.34;;;9.48;78.46
37904;BME280;23738;50.422;18.758;2022-10-31T02:47:37;98879.44;;;9.41;78.38
37904;BME280;23738;50.422;18.758;2022-10-31T02:50:10;98879.30;;;9.39;78.45
37904;BME280;23738;50.422;18.758;2022-10-31T02:52:38;98877.48;;;9.39;78.54
37904;BME280;23738;50.422;18.758;2022-10-31T03:00:43;98880.36;;;9.34;78.61
37904;BME280;23738;50.422;18.758;2022-10-31T03:03:33;98885.98;;;9.31;78.52
37904;BME280;23738;50.422;18.758;2022-10-31T03:06:17;98884.84;;;9.29;78.56
37904;BME280;23738;50.422;18.758;2022-10-31T03:11:29;98895.98;;;9.20;78.53
37904;BME280;23738;50.422;18.758;2022-10-31T03:14:23;98896.21;;;9.15;78.49
37904;BME280;23738;50.422;18.758;2022-10-31T03:16:51;98896.21;;;9.15;78.60
37904;BME280;23738;50.422;18.758;2022-10-31T03:19:26;98901.31;;;9.16;78.66
37904;BME280;23738;50.422;18.758;2022-10-31T03:22:07;98897.70;;;9.13;78.55
37904;BME280;23738;50.422;18.758;2022-10-31T03:24:45;98900.19;;;9.11;78.55
37904;BME280;23738;50.422;18.758;2022-10-31T03:27:16;98906.02;;;9.06;78.50
37904;BME280;23738;50.422;18.758;2022-10-31T03:29:45;98908.50;;;9.04;78.52
37904;BME280;23738;50.422;18.758;2022-10-31T03:32:18;98915.97;;;9.00;78.57
37904;BME280;23738;50.422;18.758;2022-10-31T03:34:53;98911.87;;;8.98;78.54
37904;BME280;23738;50.422;18.758;2022-10-31T03:37:22;98913.19;;;8.98;78.62
37904;BME280;23738;50.422;18.758;2022-10-31T03:39:49;98911.20;;;9.00;78.78
37904;BME280;23738;50.422;18.758;2022-10-31T03:42:22;98910.64;;;9.04;78.83
37904;BME280;23738;50.422;18.758;2022-10-31T03:44:59;98910.00;;;9.02;78.78
37904;BME280;23738;50.422;18.758;2022-10-31T03:47:24;98905.92;;;9.00;78.78
37904;BME280;23738;50.422;18.758;2022-10-31T03:49:50;98910.87;;;8.99;78.80
37904;BME280;23738;50.422;18.758;2022-10-31T03:52:28;98920.24;;;9.01;78.92
37904;BME280;23738;50.422;18.758;2022-10-31T03:55:09;98916.91;;;9.03;78.93
37904;BME280;23738;50.422;18.758;2022-10-31T04:00:23;98918.28;;;8.99;78.76
37904;BME280;23738;50.422;18.758;2022-10-31T04:02:53;98918.95;;;8.97;78.83
37904;BME280;23738;50.422;18.758;2022-10-31T04:05:21;98924.89;;;8.95;78.86
37904;BME280;23738;50.422;18.758;2022-10-31T04:07:50;98927.41;;;8.93;78.88
37904;BME280;23738;50.422;18.758;2022-10-31T04:10:19;98923.63;;;8.91;78.95
37904;BME280;23738;50.422;18.758;2022-10-31T04:12:49;98924.13;;;8.91;79.00
37904;BME280;23738;50.422;18.758;2022-10-31T04:15:18;98931.03;;;8.92;78.94
37904;BME280;23738;50.422;18.758;2022-10-31T04:17:46;98929.89;;;8.90;78.97
37904;BME280;23738;50.422;18.758;2022-10-31T04:20:17;98930.22;;;8.91;79.03
37904;BME280;23738;50.422;18.758;2022-10-31T04:22:43;98932.53;;;8.90;78.99
37904;BME280;23738;50.422;18.758;2022-10-31T04:25:09;98931.88;;;8.88;78.98
37904;BME280;23738;50.422;18.758;2022-10-31T04:27:35;98929.91;;;8.86;78.98
37904;BME280;23738;50.422;18.758;2022-10-31T04:30:01;98937.97;;;8.89;79.15
37904;BME280;23738;50.422;18.758;2022-10-31T04:32:26;98933.17;;;8.92;79.14
37904;BME280;23738;50.422;18.758;2022-10-31T04:34:52;98938.77;;;8.93;79.13
37904;BME280;23738;50.422;18.758;2022-10-31T04:37:18;98936.13;;;8.93;79.15
37904;BME280;23738;50.422;18.758;2022-10-31T04:39:43;98933.67;;;8.92;79.11
37904;BME280;23738;50.422;18.758;2022-10-31T04:42:09;98937.15;;;8.88;79.04
37904;BME280;23738;50.422;18.758;2022-10-31T04:44:35;98936.20;;;8.85;79.05
37904;BME280;23738;50.422;18.758;2022-10-31T04:47:01;98937.52;;;8.85;79.12
37904;BME280;23738;50.422;18.758;2022-10-31T04:49:26;98937.03;;;8.86;79.14
37904;BME280;23738;50.422;18.758;2022-10-31T04:51:52;98938.34;;;8.86;79.07
37904;BME280;23738;50.422;18.758;2022-10-31T04:54:18;98938.37;;;8.81;78.98
37904;BME280;23738;50.422;18.758;2022-10-31T04:56:44;98941.22;;;8.76;78.98
37904;BME280;23738;50.422;18.758;2022-10-31T04:59:09;98941.56;;;8.73;78.93
37904;BME280;23738;50.422;18.758;2022-10-31T05:01:35;98937.98;;;8.70;78.87
37904;BME280;23738;50.422;18.758;2022-10-31T05:04:01;98937.83;;;8.67;78.98
37904;BME280;23738;50.422;18.758;2022-10-31T05:06:26;98934.53;;;8.69;79.01
37904;BME280;23738;50.422;18.758;2022-10-31T05:08:52;98940.42;;;8.71;79.00
37904;BME280;23738;50.422;18.758;2022-10-31T05:11:18;98932.39;;;8.69;78.92
37904;BME280;23738;50.422;18.758;2022-10-31T05:13:43;98930.77;;;8.64;78.87
37904;BME280;23738;50.422;18.758;2022-10-31T05:16:09;98936.09;;;8.60;78.90
37904;BME280;23738;50.422;18.758;2022-10-31T05:18:35;98933.63;;;8.58;78.92
37904;BME280;23738;50.422;18.758;2022-10-31T05:21:01;98938.24;;;8.56;78.86
37904;BME280;23738;50.422;18.758;2022-10-31T05:23:26;98942.73;;;8.52;78.76
37904;BME280;23738;50.422;18.758;2022-10-31T05:25:52;98946.85;;;8.50;78.81
37904;BME280;23738;50.422;18.758;2022-10-31T05:28:18;98940.61;;;8.47;78.75
37904;BME280;23738;50.422;18.758;2022-10-31T05:30:43;98940.83;;;8.41;78.74
37904;BME280;23738;50.422;18.758;2022-10-31T05:33:09;98948.56;;;8.39;78.76
37904;BME280;23738;50.422;18.758;2022-10-31T05:35:35;98941.36;;;8.37;78.77
37904;BME280;23738;50.422;18.758;2022-10-31T05:38:01;98954.65;;;8.39;78.79
37904;BME280;23738;50.422;18.758;2022-10-31T05:40:27;98945.11;;;8.38;78.78
37904;BME280;23738;50.422;18.758;2022-10-31T05:42:55;98952.72;;;8.37;78.75
37904;BME280;23738;50.422;18.758;2022-10-31T05:45:22;98952.22;;;8.38;78.72
37904;BME280;23738;50.422;18.758;2022-10-31T05:47:56;98956.17;;;8.34;78.70
37904;BME280;23738;50.422;18.758;2022-10-31T05:50:24;98955.66;;;8.30;78.70
37904;BME280;23738;50.422;18.758;2022-10-31T05:52:56;98963.56;;;8.30;78.70
37904;BME280;23738;50.422;18.758;2022-10-31T05:55:23;98952.24;;;8.30;78.73
37904;BME280;23738;50.422;18.758;2022-10-31T05:57:52;98964.58;;;8.29;78.68
37904;BME280;23738;50.422;18.758;2022-10-31T06:00:19;98966.72;;;8.30;78.70
37904;BME280;23738;50.422;18.758;2022-10-31T06:02:45;98968.20;;;8.28;78.66
37904;BME280;23738;50.422;18.758;2022-10-31T06:05:11;98969.36;;;8.26;78.58
37904;BME280;23738;50.422;18.758;2022-10-31T06:07:37;98972.82;;;8.22;78.62
37904;BME280;23738;50.422;18.758;2022-10-31T06:10:06;98966.77;;;8.22;78.62
37904;BME280;23738;50.422;18.758;2022-10-31T06:12:34;98973.80;;;8.25;78.66
37904;BME280;23738;50.422;18.758;2022-10-31T06:15:04;98977.74;;;8.29;78.69
37904;BME280;23738;50.422;18.758;2022-10-31T06:17:33;98978.39;;;8.31;78.68
37904;BME280;23738;50.422;18.758;2022-10-31T06:19:59;98978.39;;;8.31;78.66
37904;BME280;23738;50.422;18.758;2022-10-31T06:22:25;98975.27;;;8.32;78.66
37904;BME280;23738;50.422;18.758;2022-10-31T06:24:50;98978.89;;;8.31;78.65
37904;BME280;23738;50.422;18.758;2022-10-31T06:27:16;98980.03;;;8.32;78.71
37904;BME280;23738;50.422;18.758;2022-10-31T06:29:42;98988.88;;;8.39;78.82
37904;BME280;23738;50.422;18.758;2022-10-31T06:32:10;98991.45;;;8.48;78.92
37904;BME280;23738;50.422;18.758;2022-10-31T06:34:36;98988.77;;;8.56;78.99
37904;BME280;23738;50.422;18.758;2022-10-31T06:37:03;98988.43;;;8.59;78.96
37904;BME280;23738;50.422;18.758;2022-10-31T06:39:28;98989.86;;;8.65;79.19
37904;BME280;23738;50.422;18.758;2022-10-31T06:41:54;98996.88;;;8.73;79.31
37904;BME280;23738;50.422;18.758;2022-10-31T06:44:20;99002.41;;;8.82;79.51
37904;BME280;23738;50.422;18.758;2022-10-31T06:46:46;99000.69;;;8.93;79.61
37904;BME280;23738;50.422;18.758;2022-10-31T06:49:13;98998.92;;;9.04;79.84
37904;BME280;23738;50.422;18.758;2022-10-31T06:51:38;99006.91;;;9.15;79.97
37904;BME280;23738;50.422;18.758;2022-10-31T06:54:04;99007.66;;;9.24;80.14
37904;BME280;23738;50.422;18.758;2022-10-31T06:56:30;99005.88;;;9.35;80.30
37904;BME280;23738;50.422;18.758;2022-10-31T06:58:56;99003.14;;;9.47;80.48
37904;BME280;23738;50.422;18.758;2022-10-31T07:01:21;99012.05;;;9.60;80.69
37904;BME280;23738;50.422;18.758;2022-10-31T07:03:47;99009.73;;;9.76;81.01
37904;BME280;23738;50.422;18.758;2022-10-31T07:06:13;99013.50;;;9.92;81.29
37904;BME280;23738;50.422;18.758;2022-10-31T07:08:39;99008.16;;;10.11;81.42
37904;BME280;23738;50.422;18.758;2022-10-31T07:11:05;99008.84;;;10.24;81.46
37904;BME280;23738;50.422;18.758;2022-10-31T07:13:30;99009.05;;;10.33;81.45
37904;BME280;23738;50.422;18.758;2022-10-31T07:16:02;99006.26;;;10.45;81.78
37904;BME280;23738;50.422;18.758;2022-10-31T07:18:29;99007.52;;;10.60;81.89
37904;BME280;23738;50.422;18.758;2022-10-31T07:20:55;99008.39;;;10.78;82.08
37904;BME280;23738;50.422;18.758;2022-10-31T07:23:22;99016.78;;;10.92;82.18
37904;BME280;23738;50.422;18.758;2022-10-31T07:25:48;99012.23;;;11.07;82.30
37904;BME280;23738;50.422;18.758;2022-10-31T07:28:13;99017.37;;;11.15;82.11
37904;BME280;23738;50.422;18.758;2022-10-31T07:30:39;99016.61;;;11.21;82.27
37904;BME280;23738;50.422;18.758;2022-10-31T07:33:05;99015.83;;;11.27;82.31
37904;BME280;23738;50.422;18.758;2022-10-31T07:35:32;99020.98;;;11.35;82.51
37904;BME280;23738;50.422;18.758;2022-10-31T07:38:09;99014.04;;;11.45;82.69
37904;BME280;23738;50.422;18.758;2022-10-31T07:40:36;99009.55;;;11.56;82.84
37904;BME280;23738;50.422;18.758;2022-10-31T07:43:02;99014.18;;;11.65;82.84
37904;BME280;23738;50.422;18.758;2022-10-31T07:45:28;99022.09;;;11.75;83.04
37904;BME280;23738;50.422;18.758;2022-10-31T07:47:54;99014.75;;;11.88;83.16
37904;BME280;23738;50.422;18.758;2022-10-31T07:50:26;99017.77;;;12.02;83.30
37904;BME280;23738;50.422;18.758;2022-10-31T07:53:05;99018.63;;;12.16;83.38
37904;BME280;23738;50.422;18.758;2022-10-31T07:55:32;99010.95;;;12.28;83.34
37904;BME280;23738;50.422;18.758;2022-10-31T07:58:10;99016.59;;;12.42;83.36
37904;BME280;23738;50.422;18.758;2022-10-31T08:00:38;99015.80;;;12.54;83.49
37904;BME280;23738;50.422;18.758;2022-10-31T08:03:08;99021.74;;;12.70;83.45
37904;BME280;23738;50.422;18.758;2022-10-31T08:05:36;99019.13;;;12.83;83.43
37904;BME280;23738;50.422;18.758;2022-10-31T08:08:04;99021.28;;;12.96;83.37
37904;BME280;23738;50.422;18.758;2022-10-31T08:10:31;99020.70;;;13.08;83.38
37904;BME280;23738;50.422;18.758;2022-10-31T08:13:05;99019.70;;;13.22;83.26
37904;BME280;23738;50.422;18.758;2022-10-31T08:15:33;99018.25;;;13.26;83.10
37904;BME280;23738;50.422;18.758;2022-10-31T08:18:01;99021.74;;;13.39;83.27
37904;BME280;23738;50.422;18.758;2022-10-31T08:20:28;99027.13;;;13.55;83.14
37904;BME280;23738;50.422;18.758;2022-10-31T08:22:59;99027.72;;;13.70;83.00
37904;BME280;23738;50.422;18.758;2022-10-31T08:25:29;99023.70;;;13.84;82.96
37904;BME280;23738;50.422;18.758;2022-10-31T08:27:56;99024.80;;;13.92;82.68
37904;BME280;23738;50.422;18.758;2022-10-31T08:30:25;99024.87;;;14.01;82.71
37904;BME280;23738;50.422;18.758;2022-10-31T08:35:32;99027.95;;;14.27;82.51
37904;BME280;23738;50.422;18.758;2022-10-31T08:37:59;99022.60;;;14.40;82.44
37904;BME280;23738;50.422;18.758;2022-10-31T08:40:27;99022.45;;;14.50;82.29
37904;BME280;23738;50.422;18.758;2022-10-31T08:42:59;99028.09;;;14.67;82.20
37904;BME280;23738;50.422;18.758;2022-10-31T08:45:29;99026.02;;;14.85;82.29
37904;BME280;23738;50.422;18.758;2022-10-31T08:48:01;99024.27;;;15.04;82.15
37904;BME280;23738;50.422;18.758;2022-10-31T08:50:30;99022.09;;;15.19;81.82
37904;BME280;23738;50.422;18.758;2022-10-31T08:53:04;99022.58;;;15.34;81.85
37904;BME280;23738;50.422;18.758;2022-10-31T08:55:35;99024.08;;;15.55;81.72
37904;BME280;23738;50.422;18.758;2022-10-31T08:58:04;99021.36;;;15.71;81.49
37904;BME280;23738;50.422;18.758;2022-10-31T09:00:35;99017.31;;;15.86;81.05
37904;BME280;23738;50.422;18.758;2022-10-31T09:03:08;99021.36;;;15.98;81.03
37904;BME280;23738;50.422;18.758;2022-10-31T09:05:32;99018.87;;;16.12;80.69
37904;BME280;23738;50.422;18.758;2022-10-31T09:07:59;99015.72;;;16.33;80.56
37904;BME280;23738;50.422;18.758;2022-10-31T09:10:27;99013.38;;;16.55;80.24
37904;BME280;23738;50.422;18.758;2022-10-31T09:13:02;99021.67;;;16.74;79.93
37904;BME280;23738;50.422;18.758;2022-10-31T09:15:32;99025.84;;;16.91;79.70
37904;BME280;23738;50.422;18.758;2022-10-31T09:17:59;99015.98;;;17.03;79.36
37904;BME280;23738;50.422;18.758;2022-10-31T09:20:26;99019.59;;;17.09;78.90
37904;BME280;23738;50.422;18.758;2022-10-31T09:22:58;99021.92;;;17.17;78.90
37904;BME280;23738;50.422;18.758;2022-10-31T09:25:26;99022.29;;;17.32;78.59
37904;BME280;23738;50.422;18.758;2022-10-31T09:27:56;99026.16;;;17.48;78.21
37904;BME280;23738;50.422;18.758;2022-10-31T09:30:24;99028.14;;;17.64;77.86
37904;BME280;23738;50.422;18.758;2022-10-31T09:32:58;99035.81;;;17.84;77.75
37904;BME280;23738;50.422;18.758;2022-10-31T09:35:26;99037.77;;;18.00;77.40
37904;BME280;23738;50.422;18.758;2022-10-31T09:37:57;99026.25;;;18.11;77.06
37904;BME280;23738;50.422;18.758;2022-10-31T09:40:34;99034.29;;;18.25;76.77
37904;BME280;23738;50.422;18.758;2022-10-31T09:43:16;99034.30;;;18.40;76.34
37904;BME280;23738;50.422;18.758;2022-10-31T09:46:04;99037.79;;;18.54;76.04
37904;BME280;23738;50.422;18.758;2022-10-31T09:52:10;99035.28;;;18.76;74.92
37904;BME280;23738;50.422;18.758;2022-10-31T09:57:27;99029.98;;;19.09;75.09
37904;BME280;23738;50.422;18.758;2022-10-31T09:59:54;99024.69;;;19.29;74.51
37904;BME280;23738;50.422;18.758;2022-10-31T10:02:34;99026.72;;;19.38;74.03
37904;BME280;23738;50.422;18.758;2022-10-31T10:05:17;99026.65;;;19.50;73.85
37904;BME280;23738;50.422;18.758;2022-10-31T10:07:55;99028.26;;;19.68;73.89
37904;BME280;23738;50.422;18.758;2022-10-31T10:10:53;99025.66;;;19.92;73.88
37904;BME280;23738;50.422;18.758;2022-10-31T10:17:11;99020.72;;;20.25;72.94
37904;BME280;23738;50.422;18.758;2022-10-31T10:19:56;99015.31;;;20.44;72.97
37904;BME280;23738;50.422;18.758;2022-10-31T10:25:22;99009.20;;;20.76;72.13
37904;BME280;23738;50.422;18.758;2022-10-31T10:30:39;99014.04;;;21.03;71.58
37904;BME280;23738;50.422;18.758;2022-10-31T10:33:13;99014.72;;;21.18;71.56
37904;BME280;23738;50.422;18.758;2022-10-31T10:35:46;99009.22;;;21.34;70.67
37904;BME280;23738;50.422;18.758;2022-10-31T10:39:00;99014.37;;;21.41;70.61
37904;BME280;23738;50.422;18.758;2022-10-31T10:41:28;99020.41;;;21.58;70.41
37904;BME280;23738;50.422;18.758;2022-10-31T10:43:57;99011.34;;;21.72;70.20
37904;BME280;23738;50.422;18.758;2022-10-31T10:46:46;99015.95;;;21.79;69.64
37904;BME280;23738;50.422;18.758;2022-10-31T10:49:43;99008.21;;;21.85;69.44
37904;BME280;23738;50.422;18.758;2022-10-31T10:52:47;99009.05;;;21.96;69.34
37904;BME280;23738;50.422;18.758;2022-10-31T10:55:36;99003.52;;;22.12;69.26
37904;BME280;23738;50.422;18.758;2022-10-31T10:58:08;99008.14;;;22.27;68.76
37904;BME280;23738;50.422;18.758;2022-10-31T11:00:41;99002.25;;;22.35;68.35
37904;BME280;23738;50.422;18.758;2022-10-31T11:03:09;99001.75;;;22.46;67.86
37904;BME280;23738;50.422;18.758;2022-10-31T11:05:54;99000.95;;;22.48;66.52
37904;BME280;23738;50.422;18.758;2022-10-31T11:13:58;99005.56;;;22.58;66.43
37904;BME280;23738;50.422;18.758;2022-10-31T11:21:45;98990.01;;;22.85;65.64
37904;BME280;23738;50.422;18.758;2022-10-31T11:24:15;98996.77;;;22.90;65.66
37904;BME280;23738;50.422;18.758;2022-10-31T11:26:44;98996.48;;;22.94;64.92
37904;BME280;23738;50.422;18.758;2022-10-31T11:29:25;98988.95;;;22.96;64.39
37904;BME280;23738;50.422;18.758;2022-10-31T11:31:53;98991.09;;;23.02;64.41
37904;BME280;23738;50.422;18.758;2022-10-31T11:34:32;98990.30;;;23.04;64.21
37904;BME280;23738;50.422;18.758;2022-10-31T11:37:09;98992.17;;;23.08;64.72
37904;BME280;23738;50.422;18.758;2022-10-31T11:39:31;98984.11;;;23.13;64.60
37904;BME280;23738;50.422;18.758;2022-10-31T11:41:59;98984.09;;;23.16;63.82
37904;BME280;23738;50.422;18.758;2022-10-31T11:44:28;98980.32;;;23.17;63.75
37904;BME280;23738;50.422;18.758;2022-10-31T11:47:01;98982.73;;;23.16;62.92
37904;BME280;23738;50.422;18.758;2022-10-31T11:49:31;98977.89;;;23.18;62.92
37904;BME280;23738;50.422;18.758;2022-10-31T11:52:27;98977.62;;;23.24;61.85
37904;BME280;23738;50.422;18.758;2022-10-31T11:55:15;98973.85;;;23.28;62.79
37904;BME280;23738;50.422;18.758;2022-10-31T11:57:49;98975.99;;;23.34;62.22
37904;BME280;23738;50.422;18.758;2022-10-31T12:00:25;98974.10;;;23.32;61.57
37904;BME280;23738;50.422;18.758;2022-10-31T12:05:42;98969.52;;;23.32;61.77
37904;BME280;23738;50.422;18.758;2022-10-31T12:08:11;98967.91;;;23.34;61.88
37904;BME280;23738;50.422;18.758;2022-10-31T12:10:46;98972.48;;;23.33;61.06
37904;BME280;23738;50.422;18.758;2022-10-31T12:13:32;98971.95;;;23.31;61.34
37904;BME280;23738;50.422;18.758;2022-10-31T12:18:53;98965.77;;;23.25;60.34
37904;BME280;23738;50.422;18.758;2022-10-31T12:21:25;98966.84;;;23.27;60.42
37904;BME280;23738;50.422;18.758;2022-10-31T12:24:05;98961.98;;;23.37;61.54
37904;BME280;23738;50.422;18.758;2022-10-31T12:29:45;98963.86;;;23.44;60.92
37904;BME280;23738;50.422;18.758;2022-10-31T12:32:34;98956.58;;;23.44;61.18
37904;BME280;23738;50.422;18.758;2022-10-31T12:35:18;98960.89;;;23.45;60.89
37904;BME280;23738;50.422;18.758;2022-10-31T12:43:50;98953.07;;;23.61;61.27
37904;BME280;23738;50.422;18.758;2022-10-31T12:46:49;98953.61;;;23.58;60.52
37904;BME280;23738;50.422;18.758;2022-10-31T12:49:46;98950.91;;;23.58;60.57
37904;BME280;23738;50.422;18.758;2022-10-31T12:58:46;98952.26;;;23.58;60.85
37904;BME280;23738;50.422;18.758;2022-10-31T13:01:33;98956.03;;;23.57;61.06
37904;BME280;23738;50.422;18.758;2022-10-31T13:04:12;98949.59;;;23.53;60.11
37904;BME280;23738;50.422;18.758;2022-10-31T13:06:55;98953.09;;;23.49;60.41
37904;BME280;23738;50.422;18.758;2022-10-31T13:09:33;98945.53;;;23.48;60.51
37904;BME280;23738;50.422;18.758;2022-10-31T13:12:07;98948.23;;;23.48;60.64
37904;BME280;23738;50.422;18.758;2022-10-31T13:14:42;98951.19;;;23.44;59.74
37904;BME280;23738;50.422;18.758;2022-10-31T13:17:20;98945.79;;;23.39;59.96
37904;BME280;23738;50.422;18.758;2022-10-31T13:19:46;98946.89;;;23.38;59.99
37904;BME280;23738;50.422;18.758;2022-10-31T13:22:18;98949.59;;;23.38;60.32
37904;BME280;23738;50.422;18.758;2022-10-31T13:24:59;98948.24;;;23.38;60.33
37904;BME280;23738;50.422;18.758;2022-10-31T13:27:46;98940.95;;;23.36;60.60
37904;BME280;23738;50.422;18.758;2022-10-31T13:30:24;98942.86;;;23.31;60.35
37904;BME280;23738;50.422;18.758;2022-10-31T13:41:26;98944.50;;;23.14;61.54
37904;BME280;23738;50.422;18.758;2022-10-31T13:44:26;98943.16;;;23.06;61.56
37904;BME280;23738;50.422;18.758;2022-10-31T13:46:54;98942.33;;;23.01;61.30
37904;BME280;23738;50.422;18.758;2022-10-31T13:54:46;98941.23;;;22.71;61.41
37904;BME280;23738;50.422;18.758;2022-10-31T13:57:19;98939.87;;;22.56;61.27
37904;BME280;23738;50.422;18.758;2022-10-31T13:59:59;98944.67;;;22.39;61.47
37904;BME280;23738;50.422;18.758;2022-10-31T14:02:34;98943.02;;;22.23;61.41
37904;BME280;23738;50.422;18.758;2022-10-31T14:05:06;98944.88;;;22.09;62.11
37904;BME280;23738;50.422;18.758;2022-10-31T14:07:52;98941.00;;;21.95;61.86
37904;BME280;23738;50.422;18.758;2022-10-31T14:10:28;98944.16;;;21.80;62.40
37904;BME280;23738;50.422;18.758;2022-10-31T14:13:13;98948.13;;;21.64;62.15
37904;BME280;23738;50.422;18.758;2022-10-31T14:15:43;98947.23;;;21.49;62.41
37904;BME280;23738;50.422;18.758;2022-10-31T14:18:29;98941.48;;;21.32;62.79
37904;BME280;23738;50.422;18.758;2022-10-31T14:20:54;98937.91;;;21.19;63.07
37904;BME280;23738;50.422;18.758;2022-10-31T14:23:38;98939.15;;;21.07;63.25
37904;BME280;23738;50.422;18.758;2022-10-31T14:26:31;98933.44;;;20.98;63.66
37904;BME280;23738;50.422;18.758;2022-10-31T14:29:21;98932.57;;;20.90;63.82
37904;BME280;23738;50.422;18.758;2022-10-31T14:31:43;98930.33;;;20.79;63.81
37904;BME280;23738;50.422;18.758;2022-10-31T14:34:27;98925.39;;;20.69;63.78
37904;BME280;23738;50.422;18.758;2022-10-31T14:40:05;98924.62;;;20.44;64.03
37904;BME280;23738;50.422;18.758;2022-10-31T14:51:33;98919.70;;;19.87;64.17
37904;BME280;23738;50.422;18.758;2022-10-31T14:54:05;98918.38;;;19.68;64.32
37904;BME280;23738;50.422;18.758;2022-10-31T14:56:33;98913.31;;;19.49;64.38